createdAt,value
2018-08-19T00:00:26.618Z,6.75
2018-08-19T00:02:58.734Z,8.90
2018-08-19T00:05:27.141Z,11.15
2018-08-19T00:07:55.573Z,12.70
2018-08-19T00:10:38.417Z,11.00
2018-08-19T00:13:08.101Z,7.72
2018-08-19T00:15:37.286Z,7.25
2018-08-19T00:18:07.374Z,11.28
2018-08-19T00:20:35.720Z,6.37
2018-08-19T00:23:04.295Z,10.15
2018-08-19T00:25:42.607Z,12.85
2018-08-19T00:28:12.661Z,9.93
2018-08-19T00:30:40.981Z,10.25
2018-08-19T00:33:09.906Z,8.65
2018-08-19T00:35:38.273Z,8.10
2018-08-19T00:38:11.143Z,8.60
2018-08-19T00:40:39.992Z,7.00
2018-08-19T00:43:08.397Z,9.75
2018-08-19T00:45:36.957Z,10.75
2018-08-19T00:48:05.364Z,7.97
2018-08-19T00:50:33.675Z,8.88
2018-08-19T00:53:01.992Z,8.98
2018-08-19T00:55:36.534Z,6.17
2018-08-19T00:58:12.472Z,7.85
2018-08-19T01:00:40.820Z,6.35
2018-08-19T01:03:10.143Z,6.17
2018-08-19T01:05:38.528Z,8.80
2018-08-19T01:08:07.059Z,6.47
2018-08-19T01:10:35.347Z,8.13
2018-08-19T01:13:03.727Z,7.37
2018-08-19T01:15:32.168Z,6.05
2018-08-19T01:18:00.541Z,7.40
2018-08-19T01:20:28.843Z,8.33
2018-08-19T01:22:57.165Z,8.80
2018-08-19T01:25:25.541Z,6.97
2018-08-19T01:27:53.962Z,8.73
2018-08-19T01:30:25.739Z,8.95
2018-08-19T01:32:54.106Z,10.90
2018-08-19T01:35:32.477Z,11.60
2018-08-19T01:38:00.880Z,6.70
2018-08-19T01:40:29.220Z,9.80
2018-08-19T01:42:57.532Z,9.13
2018-08-19T01:45:25.982Z,6.85
2018-08-19T01:47:54.344Z,8.90
2018-08-19T01:50:22.658Z,8.20
2018-08-19T01:52:51.123Z,9.60
2018-08-19T01:55:19.729Z,8.90
2018-08-19T01:57:50.867Z,8.98
2018-08-19T02:00:19.632Z,9.50
2018-08-19T02:02:57.522Z,6.92
2018-08-19T02:05:26.240Z,7.85
2018-08-19T02:07:56.987Z,5.92
2018-08-19T02:10:25.850Z,7.40
2018-08-19T02:12:55.349Z,8.30
2018-08-19T02:15:24.870Z,7.30
2018-08-19T02:17:59.169Z,7.00
2018-08-19T02:20:34.767Z,10.48
2018-08-19T02:23:10.748Z,5.75
2018-08-19T02:25:42.198Z,8.15
2018-08-19T02:28:10.986Z,10.88
2018-08-19T02:31:02.421Z,8.93
2018-08-19T02:33:33.146Z,9.43
2018-08-19T02:36:03.469Z,7.67
2018-08-19T02:38:32.045Z,10.23
2018-08-19T02:41:00.356Z,8.15
2018-08-19T02:43:28.818Z,11.10
2018-08-19T02:45:57.113Z,11.93
2018-08-19T02:48:41.070Z,10.40
2018-08-19T02:51:10.706Z,8.25
2018-08-19T02:53:39.018Z,8.05
2018-08-19T02:56:07.361Z,8.88
2018-08-19T02:58:35.633Z,10.78
2018-08-19T03:01:03.975Z,6.62
2018-08-19T03:03:32.250Z,6.35
2018-08-19T03:06:01.910Z,8.70
2018-08-19T03:08:31.000Z,9.68
2018-08-19T03:10:59.460Z,7.78
2018-08-19T03:13:27.912Z,8.08
2018-08-19T03:15:56.852Z,7.65
2018-08-19T03:18:25.495Z,7.50
2018-08-19T03:20:53.826Z,7.58
2018-08-19T03:23:22.171Z,12.68
2018-08-19T03:25:50.524Z,10.43
2018-08-19T03:28:18.826Z,9.48
2018-08-19T03:30:53.321Z,7.05
2018-08-19T03:33:21.634Z,12.20
2018-08-19T03:35:50.027Z,11.28
2018-08-19T03:38:18.343Z,10.60
2018-08-19T03:40:46.647Z,9.88
2018-08-19T03:43:14.978Z,8.98
2018-08-19T03:45:43.317Z,8.55
2018-08-19T03:48:11.673Z,10.13
2018-08-19T03:50:40.200Z,9.03
2018-08-19T03:53:08.512Z,7.47
2018-08-19T03:55:37.918Z,11.85
2018-08-19T03:58:08.346Z,10.68
2018-08-19T04:00:38.491Z,7.90
2018-08-19T04:03:14.426Z,9.85
2018-08-19T04:05:46.262Z,9.80
2018-08-19T04:08:16.014Z,12.58
2018-08-19T04:10:47.541Z,9.20
2018-08-19T04:13:41.581Z,11.55
2018-08-19T04:16:12.757Z,11.05
2018-08-19T04:18:45.473Z,13.13
2018-08-19T04:21:17.701Z,8.85
2018-08-19T04:23:49.889Z,9.95
2018-08-19T04:26:19.524Z,8.40
2018-08-19T04:28:48.417Z,10.50
2018-08-19T04:31:22.077Z,14.75
2018-08-19T04:33:51.634Z,10.50
2018-08-19T04:36:25.347Z,12.78
2018-08-19T04:38:54.541Z,12.88
2018-08-19T04:41:23.702Z,10.18
2018-08-19T04:43:54.351Z,10.32
2018-08-19T04:46:23.938Z,12.35
2018-08-19T04:48:53.961Z,12.15
2018-08-19T04:51:23.827Z,10.85
2018-08-19T04:53:56.311Z,11.57
2018-08-19T04:56:25.437Z,13.48
2018-08-19T04:58:55.406Z,8.60
2018-08-19T05:01:24.406Z,13.05
2018-08-19T05:03:54.858Z,12.80
2018-08-19T05:06:23.392Z,7.80
2018-08-19T05:08:51.858Z,7.15
2018-08-19T05:11:21.291Z,8.50
2018-08-19T05:13:50.093Z,13.43
2018-08-19T05:16:18.813Z,8.73
2018-08-19T05:18:52.660Z,16.60
2018-08-19T05:21:27.726Z,10.50
2018-08-19T05:23:57.290Z,11.20
2018-08-19T05:26:26.130Z,14.03
2018-08-19T05:29:06.174Z,11.15
2018-08-19T05:31:39.012Z,13.22
2018-08-19T05:34:12.971Z,15.00
2018-08-19T05:36:41.712Z,11.65
2018-08-19T05:39:10.643Z,13.13
2018-08-19T05:41:38.976Z,12.65
2018-08-19T05:44:07.914Z,13.62
2018-08-19T05:46:37.179Z,18.25
2018-08-19T05:49:06.534Z,11.18
2018-08-19T05:51:38.981Z,15.88
2018-08-19T05:54:08.991Z,14.83
2018-08-19T05:56:38.758Z,11.10
2018-08-19T05:59:07.318Z,11.88
2018-08-19T06:01:37.315Z,9.08
2018-08-19T06:04:05.983Z,16.42
2018-08-19T06:06:35.262Z,13.85
2018-08-19T06:09:04.593Z,17.57
2018-08-19T06:11:33.561Z,10.38
2018-08-19T06:14:02.457Z,10.90
2018-08-19T06:16:31.759Z,12.05
2018-08-19T06:19:01.539Z,13.78
2018-08-19T06:21:31.853Z,13.05
2018-08-19T06:24:00.642Z,13.68
2018-08-19T06:26:34.843Z,10.85
2018-08-19T06:29:03.659Z,14.43
2018-08-19T06:31:32.459Z,15.65
2018-08-19T06:34:01.044Z,12.63
2018-08-19T06:36:29.451Z,16.48
2018-08-19T06:38:57.765Z,14.85
2018-08-19T06:41:26.517Z,9.55
2018-08-19T06:43:54.765Z,17.87
2018-08-19T06:46:23.021Z,11.43
2018-08-19T06:48:51.344Z,16.40
2018-08-19T06:51:19.664Z,13.53
2018-08-19T06:53:48.716Z,16.70
2018-08-19T06:56:17.075Z,12.45
2018-08-19T06:58:45.441Z,15.80
2018-08-19T07:01:13.737Z,14.20
2018-08-19T07:03:46.805Z,18.65
2018-08-19T07:06:15.436Z,14.30
2018-08-19T07:08:43.690Z,13.15
2018-08-19T07:11:12.061Z,13.55
2018-08-19T07:13:40.347Z,14.07
2018-08-19T07:16:08.638Z,14.45
2018-08-19T07:18:37.066Z,15.53
2018-08-19T07:21:05.462Z,16.87
2018-08-19T07:23:34.572Z,18.57
2018-08-19T07:26:02.894Z,13.10
2018-08-19T07:28:31.172Z,23.15
2018-08-19T07:30:59.443Z,18.07
2018-08-19T07:33:28.563Z,20.65
2018-08-19T07:35:56.851Z,20.43
2018-08-19T07:38:25.143Z,22.85
2018-08-19T07:40:54.574Z,24.30
2018-08-19T07:43:22.834Z,17.12
2018-08-19T07:45:51.263Z,16.40
2018-08-19T07:48:19.617Z,24.18
2018-08-19T07:50:47.909Z,22.87
2018-08-19T07:53:16.189Z,24.50
2018-08-19T07:55:44.704Z,17.65
2018-08-19T07:58:13.007Z,21.97
2018-08-19T08:00:41.915Z,19.55
2018-08-19T08:03:10.334Z,19.60
2018-08-19T08:05:46.961Z,20.75
2018-08-19T08:08:15.289Z,20.02
2018-08-19T08:10:43.630Z,17.73
2018-08-19T08:13:13.022Z,15.98
2018-08-19T08:15:47.015Z,17.60
2018-08-19T08:18:15.435Z,18.12
2018-08-19T08:20:43.997Z,18.87
2018-08-19T08:23:18.243Z,18.55
2018-08-19T08:25:47.958Z,19.80
2018-08-19T08:28:16.860Z,16.20
2018-08-19T08:30:45.490Z,16.87
2018-08-19T08:33:13.870Z,15.10
2018-08-19T08:35:47.918Z,16.17
2018-08-19T08:38:17.810Z,19.12
2018-08-19T08:40:47.167Z,15.25
2018-08-19T08:43:15.398Z,19.30
2018-08-19T08:45:44.168Z,18.75
2018-08-19T08:48:12.512Z,20.08
2018-08-19T08:50:40.816Z,14.03
2018-08-19T08:53:09.461Z,20.10
2018-08-19T08:55:37.933Z,22.98
2018-08-19T08:58:06.957Z,17.27
2018-08-19T09:00:35.855Z,14.93
2018-08-19T09:03:04.588Z,14.45
2018-08-19T09:05:33.084Z,14.18
2018-08-19T09:08:01.594Z,19.92
2018-08-19T09:10:30.103Z,15.00
2018-08-19T09:12:58.595Z,15.98
2018-08-19T09:15:27.416Z,14.30
2018-08-19T09:17:56.029Z,18.45
2018-08-19T09:20:24.901Z,15.20
2018-08-19T09:22:55.222Z,10.28
2018-08-19T09:25:23.604Z,14.83
2018-08-19T09:27:52.180Z,13.83
2018-08-19T09:30:29.977Z,14.28
2018-08-19T09:32:59.548Z,11.90
2018-08-19T09:35:32.464Z,14.83
2018-08-19T09:38:06.242Z,11.97
2018-08-19T09:40:35.428Z,17.25
2018-08-19T09:43:03.878Z,15.53
2018-08-19T09:45:32.622Z,9.90
2018-08-19T09:48:02.828Z,11.57
2018-08-19T09:50:34.717Z,14.23
2018-08-19T09:53:05.290Z,10.30
2018-08-19T09:55:44.293Z,8.98
2018-08-19T09:58:21.675Z,10.48
2018-08-19T10:00:56.151Z,7.12
2018-08-19T10:03:24.901Z,7.87
2018-08-19T10:05:54.109Z,6.05
2018-08-19T10:08:24.707Z,4.83
2018-08-19T10:10:53.060Z,7.00
2018-08-19T10:13:21.411Z,5.95
2018-08-19T10:15:51.240Z,9.78
2018-08-19T10:18:20.248Z,7.97
2018-08-19T10:20:48.778Z,9.95
2018-08-19T10:23:17.007Z,10.35
2018-08-19T10:25:45.720Z,9.75
2018-08-19T10:28:14.069Z,11.05
2018-08-19T10:30:48.374Z,9.78
2018-08-19T10:33:18.091Z,10.85
2018-08-19T10:35:47.813Z,9.20
2018-08-19T10:38:16.295Z,13.43
2018-08-19T10:41:08.839Z,10.58
2018-08-19T10:43:37.410Z,6.70
2018-08-19T10:46:12.489Z,10.00
2018-08-19T10:48:41.260Z,10.60
2018-08-19T10:51:10.496Z,9.13
2018-08-19T10:53:39.680Z,9.35
2018-08-19T10:56:08.148Z,6.42
2018-08-19T10:58:37.746Z,8.05
2018-08-19T11:01:13.307Z,10.45
2018-08-19T11:03:42.254Z,8.58
2018-08-19T11:06:13.326Z,6.17
2018-08-19T11:08:50.433Z,6.80
2018-08-19T11:11:19.229Z,5.17
2018-08-19T11:13:48.811Z,6.90
2018-08-19T11:16:18.409Z,8.73
2018-08-19T11:18:49.272Z,4.60
2018-08-19T11:21:32.052Z,8.08
2018-08-19T11:24:01.125Z,5.15
2018-08-19T11:26:29.596Z,5.92
2018-08-19T11:29:03.363Z,5.60
2018-08-19T11:31:33.886Z,4.85
2018-08-19T11:34:08.498Z,8.55
2018-08-19T11:36:42.014Z,4.42
2018-08-19T11:39:12.228Z,5.95
2018-08-19T11:41:40.586Z,5.22
2018-08-19T11:44:14.018Z,5.83
2018-08-19T11:46:42.326Z,5.10
2018-08-19T11:49:12.786Z,6.42
2018-08-19T11:51:51.009Z,7.62
2018-08-19T11:54:20.261Z,6.22
2018-08-19T11:56:59.319Z,10.10
2018-08-19T11:59:33.090Z,10.00
2018-08-19T12:02:02.117Z,9.28
2018-08-19T12:04:30.895Z,8.03
2018-08-19T12:06:59.560Z,10.85
2018-08-19T12:09:28.369Z,10.45
2018-08-19T12:12:00.027Z,9.53
2018-08-19T12:14:35.482Z,6.53
2018-08-19T12:17:11.552Z,12.05
2018-08-19T12:19:44.154Z,8.00
2018-08-19T12:22:14.209Z,8.05
2018-08-19T12:24:48.233Z,10.30
2018-08-19T12:27:21.007Z,11.22
2018-08-19T12:29:50.046Z,9.03
2018-08-19T12:32:26.376Z,9.78
2018-08-19T12:35:00.812Z,6.62
2018-08-19T12:37:31.698Z,8.25
2018-08-19T12:40:19.284Z,7.47
2018-08-19T12:42:54.628Z,12.07
2018-08-19T12:45:23.986Z,10.30
2018-08-19T12:47:53.202Z,7.92
2018-08-19T12:50:24.760Z,10.70
2018-08-19T12:52:54.068Z,8.25
2018-08-19T12:55:26.723Z,11.65
2018-08-19T12:58:00.996Z,10.35
2018-08-19T13:00:29.993Z,6.50
2018-08-19T13:02:58.725Z,6.87
2018-08-19T13:05:28.919Z,9.15
2018-08-19T13:07:57.514Z,10.00
2018-08-19T13:10:34.410Z,10.85
2018-08-19T13:13:02.789Z,9.23
2018-08-19T13:15:31.750Z,10.45
2018-08-19T13:18:00.081Z,9.95
2018-08-19T13:20:28.541Z,8.50
2018-08-19T13:23:00.115Z,7.08
2018-08-19T13:25:29.478Z,6.42
2018-08-19T13:27:57.754Z,6.08
2018-08-19T13:30:26.809Z,7.22
2018-08-19T13:32:55.178Z,6.90
2018-08-19T13:35:24.645Z,5.87
2018-08-19T13:37:53.092Z,4.87
2018-08-19T13:40:21.813Z,9.38
2018-08-19T13:42:51.461Z,6.30
2018-08-19T13:45:20.956Z,6.97
2018-08-19T13:47:54.266Z,7.20
2018-08-19T13:50:22.696Z,6.62
2018-08-19T13:52:51.187Z,7.80
2018-08-19T13:55:20.403Z,8.45
2018-08-19T13:57:49.012Z,6.33
2018-08-19T14:00:18.577Z,6.25
2018-08-19T14:02:48.619Z,6.80
2018-08-19T14:05:17.542Z,8.45
2018-08-19T14:07:45.814Z,8.60
2018-08-19T14:10:15.883Z,8.35
2018-08-19T14:12:44.454Z,7.62
2018-08-19T14:15:12.722Z,6.55
2018-08-19T14:17:41.005Z,7.20
2018-08-19T14:20:10.624Z,6.40
2018-08-19T14:22:39.180Z,5.97
2018-08-19T14:25:08.906Z,8.38
2018-08-19T14:27:37.326Z,9.05
2018-08-19T14:32:46.521Z,5.65
2018-08-19T14:35:14.776Z,8.00
2018-08-19T14:37:43.154Z,7.47
2018-08-19T14:40:15.079Z,7.15
2018-08-19T14:42:43.325Z,8.55
2018-08-19T14:45:12.489Z,5.55
2018-08-19T14:47:40.736Z,7.65
2018-08-19T14:50:11.618Z,8.75
2018-08-19T14:52:39.878Z,6.20
2018-08-19T14:55:08.669Z,7.10
2018-08-19T14:57:37.136Z,6.65
2018-08-19T15:00:08.568Z,6.87
2018-08-19T15:02:37.240Z,9.33
2018-08-19T15:05:05.702Z,9.08
2018-08-19T15:07:33.960Z,5.45
2018-08-19T15:10:02.330Z,6.65
2018-08-19T15:12:30.578Z,6.53
2018-08-19T15:15:00.051Z,6.45
2018-08-19T15:17:28.498Z,6.78
2018-08-19T15:20:00.212Z,6.05
2018-08-19T15:22:28.640Z,6.60
2018-08-19T15:24:56.978Z,6.08
2018-08-19T15:27:25.360Z,6.35
2018-08-19T15:29:54.784Z,6.53
2018-08-19T15:32:24.903Z,11.03
2018-08-19T15:34:53.259Z,8.28
2018-08-19T15:37:22.819Z,8.25
2018-08-19T15:56:32.166Z,8.53
2018-08-19T16:12:56.891Z,16.70
2018-08-19T16:15:26.960Z,14.65
2018-08-19T16:17:56.998Z,18.00
2018-08-19T16:20:26.146Z,16.27
2018-08-19T16:22:56.993Z,24.05
2018-08-19T16:25:25.752Z,13.35
2018-08-19T16:27:55.700Z,13.75
2018-08-19T16:30:24.396Z,12.82
2018-08-19T16:32:53.115Z,23.57
2018-08-19T16:35:23.439Z,15.18
2018-08-19T16:37:52.183Z,18.02
2018-08-19T16:40:20.797Z,14.58
2018-08-19T16:42:49.670Z,12.98
2018-08-19T16:45:18.385Z,17.55
2018-08-19T16:47:47.232Z,15.30
2018-08-19T16:50:15.843Z,13.83
2018-08-19T16:52:45.264Z,16.97
2018-08-19T16:55:13.901Z,17.77
2018-08-19T16:57:42.647Z,12.20
2018-08-19T17:00:11.393Z,14.65
2018-08-19T17:02:40.933Z,16.70
2018-08-19T17:05:20.836Z,16.15
2018-08-19T17:07:49.632Z,13.72
2018-08-19T17:10:25.587Z,14.23
2018-08-19T17:12:54.117Z,12.03
2018-08-19T17:15:22.826Z,14.18
2018-08-19T17:17:51.376Z,15.95
2018-08-19T17:20:19.822Z,9.98
2018-08-19T17:22:48.858Z,10.50
2018-08-19T17:25:17.432Z,11.45
2018-08-19T17:27:45.986Z,9.95
2018-08-19T17:30:27.029Z,11.97
2018-08-19T17:33:05.778Z,9.75
2018-08-19T17:35:34.670Z,10.13
2018-08-19T17:38:03.234Z,12.93
2018-08-19T17:40:33.450Z,8.30
2018-08-19T17:43:06.817Z,10.20
2018-08-19T17:45:35.564Z,9.13
2018-08-19T17:48:05.468Z,6.58
2018-08-19T17:50:41.249Z,7.00
2018-08-19T17:53:09.992Z,7.25
2018-08-19T17:55:42.096Z,9.13
2018-08-19T17:58:14.207Z,5.72
2018-08-19T18:00:43.799Z,4.33
2018-08-19T18:03:13.107Z,5.53
2018-08-19T18:05:44.287Z,5.58
2018-08-19T18:08:21.233Z,4.15
2018-08-19T18:11:02.544Z,5.67
2018-08-19T18:13:33.946Z,5.75
2018-08-19T18:16:04.035Z,9.73
2018-08-19T18:18:32.662Z,3.02
2018-08-19T18:21:04.153Z,4.22
2018-08-19T18:23:33.912Z,5.28
2018-08-19T18:26:02.731Z,2.92
2018-08-19T18:28:32.348Z,2.77
2018-08-19T18:33:52.091Z,2.12
2018-08-19T18:36:22.924Z,5.33
2018-08-19T18:38:52.273Z,3.00
2018-08-19T18:41:26.821Z,2.17
2018-08-19T18:43:59.903Z,3.47
2018-08-19T18:46:28.909Z,3.72
2018-08-19T18:49:13.753Z,3.00
2018-08-19T18:51:44.293Z,2.75
2018-08-19T18:54:24.440Z,2.60
2018-08-19T18:56:54.570Z,3.37
2018-08-19T18:59:23.175Z,3.05
2018-08-19T19:01:51.866Z,2.60
2018-08-19T19:04:20.880Z,3.08
2018-08-19T19:06:49.754Z,3.15
2018-08-19T19:09:20.904Z,3.42
2018-08-19T19:11:52.204Z,4.05
2018-08-19T19:14:21.839Z,4.10
2018-08-19T19:16:52.223Z,4.60
2018-08-19T19:19:20.812Z,3.15
2018-08-19T19:21:53.145Z,3.17
2018-08-19T19:24:28.852Z,4.60
2018-08-19T19:26:57.323Z,5.03
2018-08-19T19:29:27.878Z,4.00
2018-08-19T19:31:58.892Z,2.95
2018-08-19T19:34:30.871Z,4.85
2018-08-19T19:37:01.269Z,5.45
2018-08-19T19:39:29.840Z,4.83
2018-08-19T19:42:03.475Z,6.85
2018-08-19T19:44:34.631Z,8.65
2018-08-19T19:47:04.027Z,6.15
2018-08-19T19:49:33.958Z,3.17
2018-08-19T19:52:03.976Z,3.37
2018-08-19T19:54:36.197Z,4.72
2018-08-19T19:57:04.692Z,6.65
2018-08-19T19:59:34.464Z,3.27
2018-08-19T20:02:03.479Z,4.60
2018-08-19T20:04:37.272Z,6.10
2018-08-19T20:07:06.420Z,4.22
2018-08-19T20:09:37.204Z,5.92
2018-08-19T20:12:08.242Z,6.22
2018-08-19T20:14:40.991Z,7.10
2018-08-19T20:17:09.474Z,5.08
2018-08-19T20:19:37.876Z,6.15
2018-08-19T20:22:13.195Z,3.87
2018-08-19T20:24:41.709Z,6.33
2018-08-19T20:27:11.215Z,5.12
2018-08-19T20:29:41.662Z,5.85
2018-08-19T20:32:11.186Z,6.17
2018-08-19T20:34:39.894Z,3.67
2018-08-19T20:37:10.338Z,4.95
2018-08-19T20:39:40.304Z,5.12
2018-08-19T20:42:09.430Z,3.05
2018-08-19T20:44:38.308Z,5.25
2018-08-19T20:47:08.570Z,2.65
2018-08-19T20:49:38.077Z,6.17
2018-08-19T20:52:06.705Z,4.87
2018-08-19T20:54:35.527Z,5.10
2018-08-19T20:57:04.775Z,4.47
2018-08-19T20:59:37.173Z,5.03
2018-08-19T21:02:07.504Z,7.22
2018-08-19T21:04:36.059Z,5.00
2018-08-19T21:07:07.225Z,4.45
2018-08-19T21:09:36.391Z,3.85
2018-08-19T21:12:05.900Z,3.05
2018-08-19T21:14:34.614Z,7.12
2018-08-19T21:17:04.708Z,4.65
2018-08-19T21:19:33.841Z,4.47
2018-08-19T21:22:02.411Z,5.90
2018-08-19T21:24:32.151Z,4.83
2018-08-19T21:27:02.494Z,3.72
2018-08-19T21:29:34.174Z,5.17
2018-08-19T21:32:03.283Z,4.55
2018-08-19T21:34:38.262Z,4.92
2018-08-19T21:37:06.788Z,5.87
2018-08-19T21:39:35.420Z,5.47
2018-08-19T21:42:04.030Z,3.72
2018-08-19T21:44:32.650Z,6.85
2018-08-19T21:47:01.150Z,5.08
2018-08-19T21:49:29.681Z,4.72
2018-08-19T21:51:58.137Z,5.72
2018-08-19T21:54:28.490Z,6.10
2018-08-19T21:56:57.775Z,6.40
2018-08-19T21:59:26.409Z,6.40
2018-08-19T22:01:57.870Z,3.75
2018-08-19T22:04:26.631Z,6.20
2018-08-19T22:06:55.324Z,2.62
2018-08-19T22:09:30.437Z,6.28
2018-08-19T22:12:00.509Z,7.30
2018-08-19T22:14:29.363Z,6.67
2018-08-19T22:17:12.506Z,4.67
2018-08-19T22:22:24.236Z,8.28
2018-08-19T22:24:52.799Z,5.40
2018-08-19T22:27:22.048Z,6.58
2018-08-19T22:29:50.485Z,9.28
2018-08-19T22:32:19.247Z,4.53
2018-08-19T22:34:47.807Z,7.87
2018-08-19T22:37:16.429Z,8.88
2018-08-19T22:39:46.365Z,7.47
2018-08-19T22:42:14.738Z,10.18
2018-08-19T22:44:43.166Z,10.65
2018-08-19T22:47:11.615Z,9.75
2018-08-19T22:49:40.031Z,9.05
2018-08-19T22:52:19.825Z,6.25
2018-08-19T22:54:50.066Z,7.47
2018-08-19T22:57:18.509Z,10.90
2018-08-19T22:59:46.962Z,6.78
2018-08-19T23:02:17.500Z,5.97
2018-08-19T23:04:46.645Z,7.67
2018-08-19T23:07:15.173Z,8.23
2018-08-19T23:09:43.571Z,9.03
2018-08-19T23:12:12.035Z,7.45
2018-08-19T23:14:51.630Z,7.20
2018-08-19T23:17:20.028Z,6.10
2018-08-19T23:19:49.557Z,7.75
2018-08-19T23:22:18.188Z,7.85
2018-08-19T23:24:46.944Z,9.25
2018-08-19T23:27:15.458Z,8.95
2018-08-19T23:29:43.895Z,11.35
2018-08-19T23:32:12.312Z,9.30
2018-08-19T23:34:40.875Z,5.30
2018-08-19T23:37:09.319Z,7.92
2018-08-19T23:39:37.765Z,10.93
2018-08-19T23:42:06.216Z,8.60
2018-08-19T23:44:34.648Z,11.63
2018-08-19T23:47:03.086Z,9.43
2018-08-19T23:49:31.574Z,10.65
2018-08-19T23:51:59.999Z,12.47
2018-08-19T23:54:28.455Z,10.75
2018-08-19T23:56:56.882Z,7.50
2018-08-19T23:59:31.509Z,12.07
